createdAt,value
2023-04-20T00:01:08.518Z,9.50
2023-04-20T00:03:54.570Z,9.70
2023-04-20T00:06:42.320Z,9.60
2023-04-20T00:09:28.616Z,9.60
2023-04-20T00:12:14.018Z,9.60
2023-04-20T00:14:59.433Z,9.60
2023-04-20T00:17:45.578Z,9.60
2023-04-20T00:20:31.891Z,9.30
2023-04-20T00:23:19.037Z,9.20
2023-04-20T00:26:04.892Z,9.40
2023-04-20T00:28:51.151Z,9.70
2023-04-20T00:31:36.807Z,9.40
2023-04-20T00:34:22.854Z,9.60
2023-04-20T00:37:08.272Z,9.60
2023-04-20T00:39:55.753Z,9.60
2023-04-20T00:42:42.281Z,9.40
2023-04-20T00:45:27.872Z,9.10
2023-04-20T00:48:13.744Z,9.20
2023-04-20T00:51:02.400Z,9.40
2023-04-20T00:53:48.307Z,9.30
2023-04-20T00:56:35.340Z,9.30
2023-04-20T00:59:21.902Z,9.60
2023-04-20T01:02:08.237Z,9.70
2023-04-20T01:04:54.684Z,9.80
2023-04-20T01:07:40.946Z,9.80
2023-04-20T01:10:26.762Z,9.60
2023-04-20T01:13:13.951Z,9.60
2023-04-20T01:16:03.641Z,9.60
2023-04-20T01:18:51.018Z,9.50
2023-04-20T01:21:36.756Z,9.10
2023-04-20T01:24:23.577Z,9.30
2023-04-20T01:27:10.464Z,9.10
2023-04-20T01:29:59.238Z,9.20
2023-04-20T01:32:45.409Z,9.10
2023-04-20T01:35:31.280Z,8.90
2023-04-20T01:38:18.346Z,9.10
2023-04-20T01:41:07.439Z,9.10
2023-04-20T01:43:53.395Z,9.40
2023-04-20T01:46:41.953Z,9.40
2023-04-20T01:49:27.944Z,9.30
2023-04-20T01:52:13.674Z,9.50
2023-04-20T01:55:00.047Z,9.00
2023-04-20T01:57:47.423Z,9.30
2023-04-20T02:00:33.078Z,8.80
2023-04-20T02:03:19.273Z,9.00
2023-04-20T02:06:06.629Z,9.20
2023-04-20T02:08:52.698Z,9.60
2023-04-20T02:11:38.595Z,9.80
2023-04-20T02:14:26.829Z,9.60
2023-04-20T02:17:12.547Z,9.80
2023-04-20T02:19:59.780Z,9.50
2023-04-20T02:22:46.161Z,9.50
2023-04-20T02:25:31.506Z,9.40
2023-04-20T02:28:17.436Z,9.10
2023-04-20T02:31:04.482Z,9.10
2023-04-20T02:33:50.004Z,8.80
2023-04-20T02:36:35.898Z,8.70
2023-04-20T02:39:23.437Z,9.10
2023-04-20T02:42:09.084Z,9.20
2023-04-20T02:44:55.034Z,9.20
2023-04-20T02:47:42.333Z,9.40
2023-04-20T02:50:29.482Z,9.60
2023-04-20T02:53:27.106Z,9.90
2023-04-20T02:56:39.083Z,10.10
2023-04-20T02:59:27.870Z,10.20
2023-04-20T03:02:19.612Z,10.10
2023-04-20T03:05:07.410Z,10.40
2023-04-20T03:08:00.432Z,10.10
2023-04-20T03:10:46.269Z,10.30
2023-04-20T03:13:36.277Z,10.30
2023-04-20T03:16:22.569Z,10.40
2023-04-20T03:19:10.719Z,10.10
2023-04-20T03:21:57.668Z,10.20
2023-04-20T03:24:43.377Z,10.40
2023-04-20T03:27:37.833Z,10.50
2023-04-20T03:30:29.150Z,10.30
2023-04-20T03:33:31.546Z,10.30
2023-04-20T03:36:17.496Z,10.50
2023-04-20T03:39:04.586Z,10.80
2023-04-20T03:41:50.370Z,11.00
2023-04-20T03:44:36.363Z,10.60
2023-04-20T03:47:24.836Z,10.40
2023-04-20T03:50:10.933Z,10.30
2023-04-20T03:52:57.835Z,10.30
2023-04-20T03:55:44.971Z,10.40
2023-04-20T03:58:35.160Z,10.30
2023-04-20T04:01:39.140Z,10.10
2023-04-20T04:04:26.526Z,10.20
2023-04-20T04:07:12.520Z,10.30
2023-04-20T04:10:00.220Z,10.40
2023-04-20T04:12:47.595Z,10.60
2023-04-20T04:15:33.780Z,10.80
2023-04-20T04:18:32.307Z,10.50
2023-04-20T04:21:22.043Z,10.50
2023-04-20T04:24:15.291Z,10.70
2023-04-20T04:27:23.515Z,10.20
2023-04-20T04:30:15.867Z,10.50
2023-04-20T04:33:04.697Z,10.60
2023-04-20T04:35:53.845Z,10.80
2023-04-20T04:38:40.290Z,11.00
2023-04-20T04:41:27.651Z,10.70
2023-04-20T04:44:22.246Z,10.60
2023-04-20T04:47:09.654Z,10.50
2023-04-20T04:49:55.662Z,10.70
2023-04-20T04:52:41.435Z,10.70
2023-04-20T04:55:27.100Z,10.40
2023-04-20T04:58:13.054Z,10.10
2023-04-20T05:00:58.352Z,10.40
2023-04-20T05:03:45.797Z,10.40
2023-04-20T05:06:32.575Z,10.50
2023-04-20T05:09:18.630Z,10.40
2023-04-20T05:12:04.693Z,10.30
2023-04-20T05:14:50.635Z,10.20
2023-04-20T05:17:36.158Z,10.20
2023-04-20T05:20:23.883Z,10.20
2023-04-20T05:23:09.500Z,10.30
2023-04-20T05:25:54.905Z,10.50
2023-04-20T05:28:40.713Z,10.50
2023-04-20T05:31:26.565Z,10.50
2023-04-20T05:34:12.505Z,10.70
2023-04-20T05:37:00.122Z,10.70
2023-04-20T05:39:46.588Z,10.70
2023-04-20T05:42:31.990Z,10.50
2023-04-20T05:45:18.043Z,10.90
2023-04-20T05:48:04.405Z,10.90
2023-04-20T05:50:50.390Z,10.90
2023-04-20T05:53:37.297Z,10.80
2023-04-20T05:56:23.359Z,11.00
2023-04-20T05:59:09.316Z,11.40
2023-04-20T06:01:55.021Z,11.80
2023-04-20T06:04:42.398Z,12.00
2023-04-20T06:07:28.413Z,12.30
2023-04-20T06:10:15.945Z,12.60
2023-04-20T06:13:01.914Z,13.40
2023-04-20T06:15:47.820Z,13.90
2023-04-20T06:18:34.072Z,15.00
2023-04-20T06:21:24.739Z,15.40
2023-04-20T06:24:10.542Z,15.50
2023-04-20T06:26:57.395Z,14.60
2023-04-20T06:29:43.077Z,13.70
2023-04-20T06:32:28.720Z,13.20
2023-04-20T06:35:14.723Z,12.90
2023-04-20T06:38:02.443Z,12.70
2023-04-20T06:40:48.485Z,12.50
2023-04-20T06:43:35.681Z,11.70
2023-04-20T06:46:21.361Z,10.50
2023-04-20T06:49:07.581Z,10.40
2023-04-20T06:51:53.439Z,10.70
2023-04-20T06:54:38.835Z,10.70
2023-04-20T06:57:24.679Z,10.80
2023-04-20T07:00:12.700Z,10.90
2023-04-20T07:02:58.478Z,11.20
2023-04-20T07:05:44.236Z,11.10
2023-04-20T07:08:30.125Z,11.40
2023-04-20T07:11:15.764Z,11.50
2023-04-20T07:14:01.899Z,11.80
2023-04-20T07:16:52.570Z,11.60
2023-04-20T07:19:38.304Z,11.10
2023-04-20T07:22:24.132Z,11.20
2023-04-20T07:25:11.109Z,11.10
2023-04-20T07:27:56.987Z,10.90
2023-04-20T07:30:42.871Z,10.80
2023-04-20T07:33:31.963Z,10.60
2023-04-20T07:36:18.051Z,10.60
2023-04-20T07:39:05.220Z,10.80
2023-04-20T07:41:51.158Z,11.00
2023-04-20T07:44:37.299Z,11.70
2023-04-20T07:47:23.292Z,11.70
2023-04-20T07:50:11.178Z,11.70
2023-04-20T07:52:56.975Z,11.50
2023-04-20T07:55:42.490Z,11.00
2023-04-20T07:58:28.544Z,10.60
2023-04-20T08:01:14.244Z,10.60
2023-04-20T08:03:59.990Z,10.70
2023-04-20T08:06:47.356Z,11.80
2023-04-20T08:09:32.997Z,12.60
2023-04-20T08:12:18.958Z,13.10
2023-04-20T08:15:10.143Z,13.70
2023-04-20T08:17:55.785Z,13.90
2023-04-20T08:20:41.937Z,13.20
2023-04-20T08:23:28.933Z,12.60
2023-04-20T08:26:15.877Z,13.10
2023-04-20T08:29:02.779Z,13.60
2023-04-20T08:31:50.025Z,12.50
2023-04-20T08:34:37.191Z,12.80
2023-04-20T08:37:23.292Z,13.50
2023-04-20T08:40:11.394Z,13.40
2023-04-20T08:42:57.296Z,13.00
2023-04-20T08:45:47.346Z,13.50
2023-04-20T08:48:36.341Z,13.60
2023-04-20T08:51:22.995Z,13.40
2023-04-20T08:54:10.419Z,12.90
2023-04-20T08:56:58.758Z,12.70
2023-04-20T08:59:44.252Z,12.60
2023-04-20T09:02:30.143Z,12.30
2023-04-20T09:05:16.466Z,12.10
2023-04-20T09:08:02.211Z,11.80
2023-04-20T09:10:47.800Z,12.10
2023-04-20T09:13:35.259Z,12.30
2023-04-20T09:16:21.257Z,12.00
2023-04-20T09:19:09.214Z,11.80
2023-04-20T09:21:58.936Z,11.60
2023-04-20T09:24:44.664Z,12.30
2023-04-20T09:27:30.303Z,12.20
2023-04-20T09:30:17.495Z,12.30
2023-04-20T09:33:03.747Z,12.10
2023-04-20T09:35:49.720Z,11.70
2023-04-20T09:38:35.273Z,11.50
2023-04-20T09:41:21.168Z,11.20
2023-04-20T09:44:08.512Z,12.00
2023-04-20T09:46:55.820Z,12.50
2023-04-20T09:49:41.651Z,13.00
2023-04-20T09:52:28.030Z,12.70
2023-04-20T09:55:13.833Z,11.90
2023-04-20T09:58:01.848Z,11.60
2023-04-20T10:00:47.623Z,11.40
2023-04-20T10:03:35.347Z,11.40
2023-04-20T10:06:22.478Z,11.00
2023-04-20T10:09:08.865Z,11.00
2023-04-20T10:12:06.174Z,11.00
2023-04-20T10:14:55.750Z,11.10
2023-04-20T10:17:41.846Z,11.20
2023-04-20T10:20:29.645Z,11.00
2023-04-20T10:23:16.439Z,11.80
2023-04-20T10:26:03.838Z,12.40
2023-04-20T10:28:49.922Z,12.70
2023-04-20T10:31:38.000Z,13.20
2023-04-20T10:34:31.245Z,13.30
2023-04-20T10:37:19.054Z,13.60
2023-04-20T10:40:10.571Z,13.90
2023-04-20T10:42:56.024Z,14.70
2023-04-20T10:45:42.420Z,15.20
2023-04-20T10:48:28.357Z,16.30
2023-04-20T10:51:13.893Z,16.00
2023-04-20T10:54:05.452Z,16.60
2023-04-20T10:56:52.333Z,17.10
2023-04-20T10:59:41.709Z,17.10
2023-04-20T11:02:28.298Z,15.90
2023-04-20T11:05:15.092Z,16.40
2023-04-20T11:08:04.064Z,16.10
2023-04-20T11:10:51.442Z,15.60
2023-04-20T11:13:37.100Z,14.80
2023-04-20T11:16:26.238Z,14.90
2023-04-20T11:19:23.295Z,14.60
2023-04-20T11:22:09.254Z,14.40
2023-04-20T11:25:05.663Z,13.60
2023-04-20T11:27:52.626Z,13.10
2023-04-20T11:30:39.537Z,12.70
2023-04-20T11:33:28.132Z,13.90
2023-04-20T11:36:19.545Z,14.40
2023-04-20T11:39:09.713Z,13.50
2023-04-20T11:41:56.600Z,13.20
2023-04-20T11:44:44.136Z,12.50
2023-04-20T11:47:29.859Z,12.70
2023-04-20T11:50:15.993Z,12.80
2023-04-20T11:53:02.482Z,12.90
2023-04-20T11:55:48.393Z,12.90
2023-04-20T11:58:34.366Z,13.10
2023-04-20T12:01:21.573Z,13.30
2023-04-20T12:04:07.729Z,13.80
2023-04-20T12:06:53.794Z,14.00
2023-04-20T12:09:40.397Z,14.30
2023-04-20T12:12:26.775Z,12.50
2023-04-20T12:15:13.171Z,12.10
2023-04-20T12:18:01.008Z,12.30
2023-04-20T12:20:47.235Z,12.40
2023-04-20T12:23:33.555Z,12.00
2023-04-20T12:26:19.371Z,11.90
2023-04-20T12:29:04.781Z,11.50
2023-04-20T12:31:50.383Z,12.00
2023-04-20T12:34:37.216Z,11.90
2023-04-20T12:37:23.038Z,12.30
2023-04-20T12:40:10.209Z,12.80
2023-04-20T12:42:56.283Z,12.60
2023-04-20T12:45:41.826Z,13.20
2023-04-20T12:48:27.368Z,13.00
2023-04-20T12:51:15.403Z,13.10
2023-04-20T12:54:01.206Z,13.10
2023-04-20T12:56:47.110Z,13.10
2023-04-20T12:59:35.712Z,13.30
2023-04-20T13:02:21.482Z,13.20
2023-04-20T13:05:08.104Z,13.20
2023-04-20T13:07:55.337Z,13.60
2023-04-20T13:10:43.967Z,13.60
2023-04-20T13:13:29.591Z,13.70
2023-04-20T13:16:16.215Z,13.70
2023-04-20T13:19:02.825Z,13.60
2023-04-20T13:21:48.771Z,13.40
2023-04-20T13:24:36.399Z,13.70
2023-04-20T13:27:21.971Z,13.70
2023-04-20T13:30:09.117Z,12.80
2023-04-20T13:32:55.148Z,12.40
2023-04-20T13:35:41.128Z,12.40
2023-04-20T13:38:26.781Z,12.60
2023-04-20T13:41:14.731Z,12.80
2023-04-20T13:44:01.274Z,12.90
2023-04-20T13:46:48.069Z,13.20
2023-04-20T13:49:33.697Z,13.50
2023-04-20T13:52:19.694Z,13.60
2023-04-20T13:55:06.091Z,14.00
2023-04-20T13:57:53.043Z,13.70
2023-04-20T14:00:39.111Z,13.50
2023-04-20T14:03:25.562Z,13.90
2023-04-20T14:06:11.448Z,14.30
2023-04-20T14:08:56.987Z,14.90
2023-04-20T14:11:43.656Z,14.70
2023-04-20T14:14:31.059Z,14.50
2023-04-20T14:17:16.770Z,14.80
2023-04-20T14:20:03.864Z,14.60
2023-04-20T14:22:49.942Z,14.30
2023-04-20T14:25:35.920Z,14.10
2023-04-20T14:28:21.506Z,14.90
2023-04-20T14:31:08.518Z,15.10
2023-04-20T14:33:54.255Z,15.60
2023-04-20T14:36:40.028Z,16.20
2023-04-20T14:39:25.559Z,16.10
2023-04-20T14:42:11.994Z,15.70
2023-04-20T14:44:57.562Z,15.50
2023-04-20T14:47:44.735Z,14.30
2023-04-20T14:50:31.866Z,14.20
2023-04-20T14:53:17.507Z,14.50
2023-04-20T14:56:03.310Z,14.60
2023-04-20T14:58:49.115Z,14.10
2023-04-20T15:01:34.854Z,14.30
2023-04-20T15:04:22.783Z,14.10
2023-04-20T15:07:09.236Z,14.00
2023-04-20T15:09:54.943Z,13.90
2023-04-20T15:12:40.398Z,13.60
2023-04-20T15:15:31.964Z,14.00
2023-04-20T15:18:23.494Z,13.90
2023-04-20T15:21:11.149Z,14.00
2023-04-20T15:23:57.219Z,13.80
2023-04-20T15:26:42.644Z,13.20
2023-04-20T15:29:28.961Z,13.50
2023-04-20T15:32:15.051Z,14.20
2023-04-20T15:35:01.195Z,14.50
2023-04-20T15:37:48.320Z,15.10
2023-04-20T15:40:33.930Z,14.70
2023-04-20T15:43:19.980Z,14.50
2023-04-20T15:46:06.096Z,14.30
2023-04-20T15:48:51.761Z,14.10
2023-04-20T15:51:38.353Z,14.40
2023-04-20T15:54:25.500Z,14.60
2023-04-20T15:57:11.261Z,14.50
2023-04-20T15:59:56.877Z,14.90
2023-04-20T16:02:42.581Z,15.50
2023-04-20T16:05:28.609Z,15.80
2023-04-20T16:08:14.414Z,16.10
2023-04-20T16:11:01.327Z,16.50
2023-04-20T16:13:46.867Z,16.90
2023-04-20T16:16:32.539Z,16.80
2023-04-20T16:19:18.540Z,15.80
2023-04-20T16:22:04.240Z,15.00
2023-04-20T16:24:49.775Z,14.30
2023-04-20T16:27:37.201Z,14.00
2023-04-20T16:30:22.991Z,14.50
2023-04-20T16:33:08.868Z,15.00
2023-04-20T16:35:54.762Z,15.50
2023-04-20T16:38:40.691Z,16.10
2023-04-20T16:41:27.163Z,16.60
2023-04-20T16:44:14.572Z,16.90
2023-04-20T16:47:01.946Z,14.90
2023-04-20T16:49:48.018Z,13.80
2023-04-20T16:52:34.240Z,13.60
2023-04-20T16:55:20.691Z,13.40
2023-04-20T16:58:06.519Z,13.10
2023-04-20T17:00:53.546Z,13.30
2023-04-20T17:03:39.887Z,13.30
2023-04-20T17:06:26.202Z,13.80
2023-04-20T17:09:12.183Z,14.20
2023-04-20T17:11:59.401Z,14.60
2023-04-20T17:14:45.407Z,15.20
2023-04-20T17:17:33.027Z,15.60
2023-04-20T17:20:19.239Z,15.60
2023-04-20T17:23:05.006Z,16.20
2023-04-20T17:25:51.329Z,16.00
2023-04-20T17:28:37.106Z,15.80
2023-04-20T17:31:22.955Z,15.20
2023-04-20T17:34:10.538Z,14.20
2023-04-20T17:36:56.471Z,13.80
2023-04-20T17:39:42.226Z,13.70
2023-04-20T17:42:28.274Z,13.70
2023-04-20T17:45:14.179Z,13.70
2023-04-20T17:48:00.048Z,13.80
2023-04-20T17:50:49.653Z,13.30
2023-04-20T17:53:35.277Z,13.30
2023-04-20T17:56:20.803Z,13.20
2023-04-20T17:59:06.731Z,13.60
2023-04-20T18:01:52.709Z,13.70
2023-04-20T18:04:39.164Z,13.50
2023-04-20T18:07:26.846Z,13.90
2023-04-20T18:10:15.606Z,13.80
2023-04-20T18:13:01.624Z,13.10
2023-04-20T18:15:47.345Z,13.50
2023-04-20T18:18:34.305Z,13.20
2023-04-20T18:21:19.916Z,13.20
2023-04-20T18:24:07.539Z,13.40
2023-04-20T18:26:53.331Z,13.50
2023-04-20T18:29:39.045Z,13.50
2023-04-20T18:32:24.633Z,13.00
2023-04-20T18:35:11.431Z,12.60
2023-04-20T18:37:57.029Z,13.00
2023-04-20T18:40:45.212Z,13.20
2023-04-20T18:43:31.871Z,13.40
2023-04-20T18:46:18.056Z,13.50
2023-04-20T18:49:03.960Z,13.40
2023-04-20T18:51:49.581Z,13.30
2023-04-20T18:54:37.496Z,13.00
2023-04-20T18:57:26.635Z,13.20
2023-04-20T19:00:13.076Z,13.30
2023-04-20T19:02:59.252Z,13.30
2023-04-20T19:05:44.712Z,13.40
2023-04-20T19:08:32.173Z,13.30
2023-04-20T19:11:18.177Z,13.20
2023-04-20T19:14:05.758Z,13.20
2023-04-20T19:16:51.397Z,13.10
2023-04-20T19:19:37.288Z,12.90
2023-04-20T19:22:23.344Z,12.90
2023-04-20T19:25:09.052Z,12.60
2023-04-20T19:27:55.066Z,12.30
2023-04-20T19:30:42.593Z,12.20
2023-04-20T19:33:28.380Z,12.10
2023-04-20T19:36:14.182Z,11.90
2023-04-20T19:38:59.789Z,11.70
2023-04-20T19:41:45.645Z,11.90
2023-04-20T19:44:31.452Z,11.90
2023-04-20T19:47:20.291Z,12.00
2023-04-20T19:50:07.321Z,12.20
2023-04-20T19:52:53.885Z,12.30
2023-04-20T19:55:40.314Z,12.20
2023-04-20T19:58:29.592Z,12.10
2023-04-20T20:01:15.638Z,12.00
2023-04-20T20:04:03.774Z,11.70
2023-04-20T20:06:50.885Z,11.60
2023-04-20T20:09:39.198Z,11.60
2023-04-20T20:12:25.783Z,11.90
2023-04-20T20:15:11.707Z,11.90
2023-04-20T20:17:58.911Z,11.70
2023-04-20T20:20:46.257Z,11.70
2023-04-20T20:23:32.109Z,12.00
2023-04-20T20:26:18.368Z,12.00
2023-04-20T20:29:06.431Z,12.20
2023-04-20T20:31:52.912Z,12.70
2023-04-20T20:34:39.078Z,12.40
2023-04-20T20:37:26.346Z,12.40
2023-04-20T20:40:14.405Z,12.40
2023-04-20T20:42:59.986Z,11.90
2023-04-20T20:45:47.007Z,11.60
2023-04-20T20:48:32.685Z,11.70
2023-04-20T20:51:18.286Z,11.50
2023-04-20T20:54:05.872Z,11.70
2023-04-20T20:56:51.739Z,11.30
2023-04-20T20:59:37.507Z,11.00
2023-04-20T21:02:23.366Z,10.80
2023-04-20T21:05:10.148Z,10.80
2023-04-20T21:07:56.001Z,11.10
2023-04-20T21:10:43.279Z,11.10
2023-04-20T21:13:29.092Z,11.20
2023-04-20T21:16:14.918Z,11.20
2023-04-20T21:19:00.889Z,10.70
2023-04-20T21:21:46.328Z,10.60
2023-04-20T21:24:32.157Z,10.30
2023-04-20T21:27:19.340Z,10.20
2023-04-20T21:30:05.937Z,10.60
2023-04-20T21:32:51.499Z,10.80
2023-04-20T21:35:37.386Z,11.10
2023-04-20T21:38:23.077Z,11.40
2023-04-20T21:41:08.401Z,11.30
2023-04-20T21:43:56.011Z,11.40
2023-04-20T21:46:44.790Z,11.30
2023-04-20T21:49:30.565Z,10.70
2023-04-20T21:52:29.896Z,10.50
2023-04-20T21:55:25.519Z,10.90
2023-04-20T21:58:17.763Z,10.70
2023-04-20T22:01:05.188Z,11.00
2023-04-20T22:03:51.873Z,11.20
2023-04-20T22:06:37.968Z,11.20
2023-04-20T22:09:23.998Z,11.10
2023-04-20T22:12:09.637Z,11.40
2023-04-20T22:14:55.563Z,11.40
2023-04-20T22:17:45.446Z,10.60
2023-04-20T22:20:31.536Z,10.70
2023-04-20T22:23:17.729Z,10.80
2023-04-20T22:26:03.638Z,10.80
2023-04-20T22:28:49.416Z,10.60
2023-04-20T22:31:35.324Z,10.20
2023-04-20T22:34:22.360Z,10.20
2023-04-20T22:37:08.735Z,10.20
2023-04-20T22:39:54.687Z,10.00
2023-04-20T22:42:40.532Z,10.00
2023-04-20T22:45:26.400Z,10.10
2023-04-20T22:48:12.467Z,10.50
2023-04-20T22:51:00.744Z,10.50
2023-04-20T22:53:46.363Z,10.40
2023-04-20T22:56:33.374Z,10.50
2023-04-20T22:59:19.809Z,10.40
2023-04-20T23:02:05.832Z,10.10
2023-04-20T23:04:51.764Z,10.30
2023-04-20T23:07:39.582Z,10.20
2023-04-20T23:10:28.656Z,10.30
2023-04-20T23:13:16.541Z,10.30
2023-04-20T23:16:02.625Z,10.20
2023-04-20T23:18:48.423Z,10.50
2023-04-20T23:21:34.000Z,10.70
2023-04-20T23:24:21.019Z,11.10
2023-04-20T23:27:06.458Z,11.20
2023-04-20T23:29:52.444Z,11.50
2023-04-20T23:32:37.919Z,11.60
2023-04-20T23:35:23.647Z,11.40
2023-04-20T23:38:09.471Z,11.50
2023-04-20T23:40:56.666Z,11.60
2023-04-20T23:43:42.606Z,11.00
2023-04-20T23:46:28.474Z,10.60
2023-04-20T23:49:14.459Z,10.70
2023-04-20T23:52:00.115Z,10.80
2023-04-20T23:54:46.018Z,10.70
2023-04-20T23:57:33.112Z,10.70
